sensor_id;sensor_type;location;lat;lon;timestamp;temperature;humidity
68511;SHT31;55512;50.102;19.958;2022-12-24T00:00:06;7.66;75.01
68511;SHT31;55512;50.102;19.958;2022-12-24T00:03:37;7.64;74.97
68511;SHT31;55512;50.102;19.958;2022-12-24T00:06:06;7.61;75.09
68511;SHT31;55512;50.102;19.958;2022-12-24T00:08:43;7.59;75.17
68511;SHT31;55512;50.102;19.958;2022-12-24T00:11:08;7.57;75.16
68511;SHT31;55512;50.102;19.958;2022-12-24T00:13:34;7.54;75.10
68511;SHT31;55512;50.102;19.958;2022-12-24T00:15:59;7.52;75.18
68511;SHT31;55512;50.102;19.958;2022-12-24T00:18:25;7.53;75.25
68511;SHT31;55512;50.102;19.958;2022-12-24T00:20:51;7.51;75.25
68511;SHT31;55512;50.102;19.958;2022-12-24T00:23:17;7.48;75.20
68511;SHT31;55512;50.102;19.958;2022-12-24T00:25:44;7.44;75.12
68511;SHT31;55512;50.102;19.958;2022-12-24T00:28:10;7.38;75.05
68511;SHT31;55512;50.102;19.958;2022-12-24T00:30:37;7.31;75.05
68511;SHT31;55512;50.102;19.958;2022-12-24T00:33:04;7.25;75.00
68511;SHT31;55512;50.102;19.958;2022-12-24T00:35:37;7.18;75.01
68511;SHT31;55512;50.102;19.958;2022-12-24T00:38:04;7.15;75.00
68511;SHT31;55512;50.102;19.958;2022-12-24T00:40:31;7.12;74.99
68511;SHT31;55512;50.102;19.958;2022-12-24T00:42:57;7.10;74.96
68511;SHT31;55512;50.102;19.958;2022-12-24T00:45:22;7.09;74.91
68511;SHT31;55512;50.102;19.958;2022-12-24T00:47:48;7.08;74.98
68511;SHT31;55512;50.102;19.958;2022-12-24T00:50:14;7.09;75.00
68511;SHT31;55512;50.102;19.958;2022-12-24T00:52:41;7.11;75.08
68511;SHT31;55512;50.102;19.958;2022-12-24T00:55:07;7.13;75.09
68511;SHT31;55512;50.102;19.958;2022-12-24T00:57:33;7.11;75.03
68511;SHT31;55512;50.102;19.958;2022-12-24T00:59:58;7.12;75.15
68511;SHT31;55512;50.102;19.958;2022-12-24T01:02:24;7.13;75.22
68511;SHT31;55512;50.102;19.958;2022-12-24T01:04:49;7.11;75.14
68511;SHT31;55512;50.102;19.958;2022-12-24T01:07:34;7.09;75.02
68511;SHT31;55512;50.102;19.958;2022-12-24T01:10:01;7.07;74.91
68511;SHT31;55512;50.102;19.958;2022-12-24T01:12:27;7.04;74.90
68511;SHT31;55512;50.102;19.958;2022-12-24T01:14:52;7.00;74.90
68511;SHT31;55512;50.102;19.958;2022-12-24T01:17:18;6.96;74.93
68511;SHT31;55512;50.102;19.958;2022-12-24T01:19:43;6.93;75.00
68511;SHT31;55512;50.102;19.958;2022-12-24T01:22:09;6.91;75.02
68511;SHT31;55512;50.102;19.958;2022-12-24T01:24:34;6.89;75.11
68511;SHT31;55512;50.102;19.958;2022-12-24T01:27:00;6.85;75.32
68511;SHT31;55512;50.102;19.958;2022-12-24T01:29:25;6.85;75.46
68511;SHT31;55512;50.102;19.958;2022-12-24T01:31:51;6.82;75.39
68511;SHT31;55512;50.102;19.958;2022-12-24T01:34:16;6.80;75.44
68511;SHT31;55512;50.102;19.958;2022-12-24T01:36:42;6.80;75.59
68511;SHT31;55512;50.102;19.958;2022-12-24T01:39:07;6.78;75.68
68511;SHT31;55512;50.102;19.958;2022-12-24T01:41:32;6.78;75.71
68511;SHT31;55512;50.102;19.958;2022-12-24T01:44:39;6.74;75.70
68511;SHT31;55512;50.102;19.958;2022-12-24T01:47:14;6.74;75.60
68511;SHT31;55512;50.102;19.958;2022-12-24T01:49:55;6.71;75.72
68511;SHT31;55512;50.102;19.958;2022-12-24T01:52:33;6.74;75.87
68511;SHT31;55512;50.102;19.958;2022-12-24T01:55:04;6.75;76.05
68511;SHT31;55512;50.102;19.958;2022-12-24T01:57:45;6.76;76.19
68511;SHT31;55512;50.102;19.958;2022-12-24T02:00:17;6.78;76.28
68511;SHT31;55512;50.102;19.958;2022-12-24T02:02:43;6.79;76.33
68511;SHT31;55512;50.102;19.958;2022-12-24T02:05:25;6.79;76.31
68511;SHT31;55512;50.102;19.958;2022-12-24T02:07:57;6.80;76.42
68511;SHT31;55512;50.102;19.958;2022-12-24T02:10:26;6.80;76.50
68511;SHT31;55512;50.102;19.958;2022-12-24T02:12:51;6.80;76.53
68511;SHT31;55512;50.102;19.958;2022-12-24T02:15:18;6.80;76.54
68511;SHT31;55512;50.102;19.958;2022-12-24T02:24:25;6.79;76.36
68511;SHT31;55512;50.102;19.958;2022-12-24T02:27:27;6.78;76.33
68511;SHT31;55512;50.102;19.958;2022-12-24T02:39:00;6.80;76.45
68511;SHT31;55512;50.102;19.958;2022-12-24T02:41:31;6.79;76.49
68511;SHT31;55512;50.102;19.958;2022-12-24T02:44:20;6.83;76.89
68511;SHT31;55512;50.102;19.958;2022-12-24T02:46:50;6.88;77.20
68511;SHT31;55512;50.102;19.958;2022-12-24T02:49:16;6.89;77.10
68511;SHT31;55512;50.102;19.958;2022-12-24T02:51:42;6.89;76.97
68511;SHT31;55512;50.102;19.958;2022-12-24T02:54:08;6.90;77.07
68511;SHT31;55512;50.102;19.958;2022-12-24T03:12:29;7.00;77.05
68511;SHT31;55512;50.102;19.958;2022-12-24T03:14:39;7.03;77.25
68511;SHT31;55512;50.102;19.958;2022-12-24T03:17:06;7.04;77.23
68511;SHT31;55512;50.102;19.958;2022-12-24T03:19:34;7.02;77.10
68511;SHT31;55512;50.102;19.958;2022-12-24T03:22:01;7.05;77.17
68511;SHT31;55512;50.102;19.958;2022-12-24T03:24:32;7.08;77.22
68511;SHT31;55512;50.102;19.958;2022-12-24T03:26:58;7.11;77.29
68511;SHT31;55512;50.102;19.958;2022-12-24T03:29:26;7.09;77.22
68511;SHT31;55512;50.102;19.958;2022-12-24T03:31:52;7.05;77.10
68511;SHT31;55512;50.102;19.958;2022-12-24T03:34:26;7.02;77.13
68511;SHT31;55512;50.102;19.958;2022-12-24T03:36:51;6.99;77.23
68511;SHT31;55512;50.102;19.958;2022-12-24T03:39:17;7.00;77.21
68511;SHT31;55512;50.102;19.958;2022-12-24T03:41:43;6.98;77.20
68511;SHT31;55512;50.102;19.958;2022-12-24T03:44:08;6.97;77.20
68511;SHT31;55512;50.102;19.958;2022-12-24T03:46:34;6.96;77.15
68511;SHT31;55512;50.102;19.958;2022-12-24T03:48:59;6.98;77.20
68511;SHT31;55512;50.102;19.958;2022-12-24T03:51:25;6.97;77.20
68511;SHT31;55512;50.102;19.958;2022-12-24T03:53:52;6.96;77.16
68511;SHT31;55512;50.102;19.958;2022-12-24T03:56:20;6.96;77.14
68511;SHT31;55512;50.102;19.958;2022-12-24T03:58:46;6.97;77.28
68511;SHT31;55512;50.102;19.958;2022-12-24T04:01:11;6.98;77.30
68511;SHT31;55512;50.102;19.958;2022-12-24T04:03:37;6.97;77.23
68511;SHT31;55512;50.102;19.958;2022-12-24T04:06:03;6.98;77.44
68511;SHT31;55512;50.102;19.958;2022-12-24T04:08:34;7.01;77.58
68511;SHT31;55512;50.102;19.958;2022-12-24T04:11:02;7.00;77.51
68511;SHT31;55512;50.102;19.958;2022-12-24T04:13:28;6.99;77.32
68511;SHT31;55512;50.102;19.958;2022-12-24T04:15:57;6.99;77.19
68511;SHT31;55512;50.102;19.958;2022-12-24T04:18:25;6.98;77.10
68511;SHT31;55512;50.102;19.958;2022-12-24T04:20:52;6.98;77.19
68511;SHT31;55512;50.102;19.958;2022-12-24T04:23:18;7.00;77.40
68511;SHT31;55512;50.102;19.958;2022-12-24T04:25:44;7.00;77.47
68511;SHT31;55512;50.102;19.958;2022-12-24T04:28:10;7.01;77.59
68511;SHT31;55512;50.102;19.958;2022-12-24T04:30:37;7.03;77.67
68511;SHT31;55512;50.102;19.958;2022-12-24T04:33:03;7.05;77.74
68511;SHT31;55512;50.102;19.958;2022-12-24T04:35:29;7.07;77.88
68511;SHT31;55512;50.102;19.958;2022-12-24T04:37:55;7.11;78.00
68511;SHT31;55512;50.102;19.958;2022-12-24T04:40:21;7.15;78.06
68511;SHT31;55512;50.102;19.958;2022-12-24T04:42:46;7.20;78.13
68511;SHT31;55512;50.102;19.958;2022-12-24T04:45:11;7.26;78.20
68511;SHT31;55512;50.102;19.958;2022-12-24T04:47:37;7.31;78.20
68511;SHT31;55512;50.102;19.958;2022-12-24T04:50:02;7.36;78.20
68511;SHT31;55512;50.102;19.958;2022-12-24T04:52:28;7.39;78.21
68511;SHT31;55512;50.102;19.958;2022-12-24T04:54:54;7.42;78.15
68511;SHT31;55512;50.102;19.958;2022-12-24T04:57:19;7.43;78.10
68511;SHT31;55512;50.102;19.958;2022-12-24T04:59:45;7.47;78.15
68511;SHT31;55512;50.102;19.958;2022-12-24T05:02:10;7.51;78.18
68511;SHT31;55512;50.102;19.958;2022-12-24T05:04:36;7.52;78.20
68511;SHT31;55512;50.102;19.958;2022-12-24T05:07:01;7.54;78.20
68511;SHT31;55512;50.102;19.958;2022-12-24T05:09:27;7.52;78.24
68511;SHT31;55512;50.102;19.958;2022-12-24T05:11:53;7.54;78.37
68511;SHT31;55512;50.102;19.958;2022-12-24T05:14:18;7.57;78.47
68511;SHT31;55512;50.102;19.958;2022-12-24T05:16:43;7.56;78.49
68511;SHT31;55512;50.102;19.958;2022-12-24T05:19:09;7.57;78.50
68511;SHT31;55512;50.102;19.958;2022-12-24T05:21:34;7.61;78.51
68511;SHT31;55512;50.102;19.958;2022-12-24T05:24:00;7.65;78.41
68511;SHT31;55512;50.102;19.958;2022-12-24T05:27:00;7.69;78.30
68511;SHT31;55512;50.102;19.958;2022-12-24T05:29:26;7.72;78.19
68511;SHT31;55512;50.102;19.958;2022-12-24T05:31:51;7.74;78.04
68511;SHT31;55512;50.102;19.958;2022-12-24T05:34:17;7.75;77.93
68511;SHT31;55512;50.102;19.958;2022-12-24T05:36:43;7.74;77.85
68511;SHT31;55512;50.102;19.958;2022-12-24T05:39:11;7.74;77.71
68511;SHT31;55512;50.102;19.958;2022-12-24T05:41:40;7.73;77.69
68511;SHT31;55512;50.102;19.958;2022-12-24T05:44:06;7.72;77.60
68511;SHT31;55512;50.102;19.958;2022-12-24T05:46:31;7.73;77.60
68511;SHT31;55512;50.102;19.958;2022-12-24T05:48:57;7.72;77.70
68511;SHT31;55512;50.102;19.958;2022-12-24T05:51:22;7.75;77.67
68511;SHT31;55512;50.102;19.958;2022-12-24T05:53:48;7.78;77.63
68511;SHT31;55512;50.102;19.958;2022-12-24T05:56:17;7.77;77.64
68511;SHT31;55512;50.102;19.958;2022-12-24T05:58:46;7.79;77.67
68511;SHT31;55512;50.102;19.958;2022-12-24T06:01:13;7.82;77.64
68511;SHT31;55512;50.102;19.958;2022-12-24T06:03:39;7.83;77.60
68511;SHT31;55512;50.102;19.958;2022-12-24T06:06:09;7.85;77.60
68511;SHT31;55512;50.102;19.958;2022-12-24T06:08:46;7.88;77.59
68511;SHT31;55512;50.102;19.958;2022-12-24T06:11:14;7.91;77.60
68511;SHT31;55512;50.102;19.958;2022-12-24T06:13:42;7.93;77.60
68511;SHT31;55512;50.102;19.958;2022-12-24T06:16:08;7.95;77.60
68511;SHT31;55512;50.102;19.958;2022-12-24T06:18:39;7.96;77.60
68511;SHT31;55512;50.102;19.958;2022-12-24T06:21:05;7.97;77.60
68511;SHT31;55512;50.102;19.958;2022-12-24T06:23:32;7.99;77.60
68511;SHT31;55512;50.102;19.958;2022-12-24T06:26:01;8.00;77.60
68511;SHT31;55512;50.102;19.958;2022-12-24T06:28:29;8.03;77.58
68511;SHT31;55512;50.102;19.958;2022-12-24T06:30:58;8.03;77.50
68511;SHT31;55512;50.102;19.958;2022-12-24T06:33:28;8.04;77.52
68511;SHT31;55512;50.102;19.958;2022-12-24T06:35:54;8.05;77.51
68511;SHT31;55512;50.102;19.958;2022-12-24T06:38:20;8.05;77.51
68511;SHT31;55512;50.102;19.958;2022-12-24T06:40:46;8.04;77.50
68511;SHT31;55512;50.102;19.958;2022-12-24T06:43:12;8.06;77.50
68511;SHT31;55512;50.102;19.958;2022-12-24T06:45:43;8.06;77.50
68511;SHT31;55512;50.102;19.958;2022-12-24T06:48:10;8.08;77.50
68511;SHT31;55512;50.102;19.958;2022-12-24T06:50:37;8.10;77.50
68511;SHT31;55512;50.102;19.958;2022-12-24T06:53:03;8.11;77.50
68511;SHT31;55512;50.102;19.958;2022-12-24T06:55:28;8.13;77.49
68511;SHT31;55512;50.102;19.958;2022-12-24T06:57:54;8.16;77.50
68511;SHT31;55512;50.102;19.958;2022-12-24T07:00:20;8.18;77.46
68511;SHT31;55512;50.102;19.958;2022-12-24T07:02:48;8.20;77.39
68511;SHT31;55512;50.102;19.958;2022-12-24T07:05:14;8.20;77.27
68511;SHT31;55512;50.102;19.958;2022-12-24T07:07:41;8.22;77.19
68511;SHT31;55512;50.102;19.958;2022-12-24T07:10:09;8.25;77.20
68511;SHT31;55512;50.102;19.958;2022-12-24T07:12:40;8.26;77.25
68511;SHT31;55512;50.102;19.958;2022-12-24T07:15:06;8.22;77.33
68511;SHT31;55512;50.102;19.958;2022-12-24T07:17:33;8.22;77.53
68511;SHT31;55512;50.102;19.958;2022-12-24T07:19:58;8.22;77.65
68511;SHT31;55512;50.102;19.958;2022-12-24T07:22:24;8.21;77.77
68511;SHT31;55512;50.102;19.958;2022-12-24T07:24:49;8.20;77.88
68511;SHT31;55512;50.102;19.958;2022-12-24T07:27:15;8.20;77.98
68511;SHT31;55512;50.102;19.958;2022-12-24T07:29:40;8.20;78.01
68511;SHT31;55512;50.102;19.958;2022-12-24T07:32:06;8.15;78.10
68511;SHT31;55512;50.102;19.958;2022-12-24T07:34:32;8.14;78.16
68511;SHT31;55512;50.102;19.958;2022-12-24T07:36:58;8.17;78.26
68511;SHT31;55512;50.102;19.958;2022-12-24T07:39:23;8.19;78.23
68511;SHT31;55512;50.102;19.958;2022-12-24T07:41:49;8.23;78.22
68511;SHT31;55512;50.102;19.958;2022-12-24T07:44:14;8.26;78.21
68511;SHT31;55512;50.102;19.958;2022-12-24T07:46:41;8.27;78.22
68511;SHT31;55512;50.102;19.958;2022-12-24T07:49:07;8.29;78.29
68511;SHT31;55512;50.102;19.958;2022-12-24T07:51:33;8.27;78.32
68511;SHT31;55512;50.102;19.958;2022-12-24T07:53:58;8.27;78.40
68511;SHT31;55512;50.102;19.958;2022-12-24T07:56:23;8.26;78.40
68511;SHT31;55512;50.102;19.958;2022-12-24T07:58:49;8.29;78.42
68511;SHT31;55512;50.102;19.958;2022-12-24T08:01:15;8.34;78.41
68511;SHT31;55512;50.102;19.958;2022-12-24T08:03:42;8.40;78.40
68511;SHT31;55512;50.102;19.958;2022-12-24T08:06:07;8.43;78.33
68511;SHT31;55512;50.102;19.958;2022-12-24T08:08:33;8.49;78.30
68511;SHT31;55512;50.102;19.958;2022-12-24T08:11:00;8.56;78.21
68511;SHT31;55512;50.102;19.958;2022-12-24T08:13:27;8.63;78.16
68511;SHT31;55512;50.102;19.958;2022-12-24T08:15:53;8.69;78.04
68511;SHT31;55512;50.102;19.958;2022-12-24T08:18:19;8.74;77.98
68511;SHT31;55512;50.102;19.958;2022-12-24T08:20:45;8.82;77.85
68511;SHT31;55512;50.102;19.958;2022-12-24T08:23:10;8.91;77.80
68511;SHT31;55512;50.102;19.958;2022-12-24T08:25:36;8.98;77.71
68511;SHT31;55512;50.102;19.958;2022-12-24T08:28:05;9.06;77.62
68511;SHT31;55512;50.102;19.958;2022-12-24T08:30:31;9.15;77.53
68511;SHT31;55512;50.102;19.958;2022-12-24T08:32:56;9.24;77.41
68511;SHT31;55512;50.102;19.958;2022-12-24T08:35:22;9.31;77.31
68511;SHT31;55512;50.102;19.958;2022-12-24T08:37:47;9.39;77.24
68511;SHT31;55512;50.102;19.958;2022-12-24T08:40:13;9.49;77.10
68511;SHT31;55512;50.102;19.958;2022-12-24T08:42:38;9.55;77.00
68511;SHT31;55512;50.102;19.958;2022-12-24T08:45:04;9.63;76.91
68511;SHT31;55512;50.102;19.958;2022-12-24T08:47:30;9.71;76.79
68511;SHT31;55512;50.102;19.958;2022-12-24T08:49:56;9.77;76.64
68511;SHT31;55512;50.102;19.958;2022-12-24T08:52:21;9.81;76.54
68511;SHT31;55512;50.102;19.958;2022-12-24T08:54:46;9.85;76.42
68511;SHT31;55512;50.102;19.958;2022-12-24T08:57:12;9.88;76.32
68511;SHT31;55512;50.102;19.958;2022-12-24T08:59:38;9.91;76.22
68511;SHT31;55512;50.102;19.958;2022-12-24T09:02:04;9.96;76.18
68511;SHT31;55512;50.102;19.958;2022-12-24T09:04:30;10.02;76.04
68511;SHT31;55512;50.102;19.958;2022-12-24T09:06:55;10.07;75.87
68511;SHT31;55512;50.102;19.958;2022-12-24T09:09:21;10.10;75.76
68511;SHT31;55512;50.102;19.958;2022-12-24T09:11:46;10.13;75.63
68511;SHT31;55512;50.102;19.958;2022-12-24T09:14:12;10.15;75.45
68511;SHT31;55512;50.102;19.958;2022-12-24T09:16:37;10.16;75.36
68511;SHT31;55512;50.102;19.958;2022-12-24T09:19:03;10.18;75.29
68511;SHT31;55512;50.102;19.958;2022-12-24T09:21:28;10.18;75.18
68511;SHT31;55512;50.102;19.958;2022-12-24T09:23:55;10.19;75.14
68511;SHT31;55512;50.102;19.958;2022-12-24T09:26:24;10.25;75.09
68511;SHT31;55512;50.102;19.958;2022-12-24T09:28:51;10.27;74.94
68511;SHT31;55512;50.102;19.958;2022-12-24T09:31:18;10.31;74.89
68511;SHT31;55512;50.102;19.958;2022-12-24T09:33:44;10.35;74.80
68511;SHT31;55512;50.102;19.958;2022-12-24T09:36:12;10.39;74.67
68511;SHT31;55512;50.102;19.958;2022-12-24T09:38:38;10.42;74.58
68511;SHT31;55512;50.102;19.958;2022-12-24T09:41:14;10.42;74.41
68511;SHT31;55512;50.102;19.958;2022-12-24T09:43:53;10.39;74.31
68511;SHT31;55512;50.102;19.958;2022-12-24T09:46:27;10.40;74.28
68511;SHT31;55512;50.102;19.958;2022-12-24T09:49:14;10.39;74.27
68511;SHT31;55512;50.102;19.958;2022-12-24T09:51:51;10.39;74.20
68511;SHT31;55512;50.102;19.958;2022-12-24T09:54:28;10.38;74.11
68511;SHT31;55512;50.102;19.958;2022-12-24T09:57:00;10.34;74.13
68511;SHT31;55512;50.102;19.958;2022-12-24T09:59:38;10.32;74.25
68511;SHT31;55512;50.102;19.958;2022-12-24T10:02:14;10.32;74.25
68511;SHT31;55512;50.102;19.958;2022-12-24T10:04:43;10.32;74.18
68511;SHT31;55512;50.102;19.958;2022-12-24T10:07:25;10.33;74.14
68511;SHT31;55512;50.102;19.958;2022-12-24T10:13:06;10.32;73.95
68511;SHT31;55512;50.102;19.958;2022-12-24T10:24:48;10.26;74.03
68511;SHT31;55512;50.102;19.958;2022-12-24T10:27:27;10.25;74.00
68511;SHT31;55512;50.102;19.958;2022-12-24T10:30:01;10.25;73.93
68511;SHT31;55512;50.102;19.958;2022-12-24T10:32:40;10.21;73.90
68511;SHT31;55512;50.102;19.958;2022-12-24T10:37:38;10.19;73.91
68511;SHT31;55512;50.102;19.958;2022-12-24T10:40:05;10.18;73.86
68511;SHT31;55512;50.102;19.958;2022-12-24T10:42:41;10.20;73.81
68511;SHT31;55512;50.102;19.958;2022-12-24T10:45:08;10.24;73.71
68511;SHT31;55512;50.102;19.958;2022-12-24T10:47:40;10.27;73.60
68511;SHT31;55512;50.102;19.958;2022-12-24T10:53:16;10.33;73.32
68511;SHT31;55512;50.102;19.958;2022-12-24T10:56:02;10.38;73.31
68511;SHT31;55512;50.102;19.958;2022-12-24T10:58:31;10.44;73.10
68511;SHT31;55512;50.102;19.958;2022-12-24T11:00:58;10.52;72.93
68511;SHT31;55512;50.102;19.958;2022-12-24T11:03:27;10.58;72.74
68511;SHT31;55512;50.102;19.958;2022-12-24T11:06:12;10.64;72.61
68511;SHT31;55512;50.102;19.958;2022-12-24T11:08:45;10.67;72.44
68511;SHT31;55512;50.102;19.958;2022-12-24T11:11:12;10.72;72.31
68511;SHT31;55512;50.102;19.958;2022-12-24T11:18:48;10.82;71.79
68511;SHT31;55512;50.102;19.958;2022-12-24T11:21:18;10.84;71.59
68511;SHT31;55512;50.102;19.958;2022-12-24T11:23:49;10.82;71.53
68511;SHT31;55512;50.102;19.958;2022-12-24T11:26:26;10.82;71.50
68511;SHT31;55512;50.102;19.958;2022-12-24T11:31:48;10.81;71.67
68511;SHT31;55512;50.102;19.958;2022-12-24T11:39:43;10.78;72.00
68511;SHT31;55512;50.102;19.958;2022-12-24T11:45:03;10.79;71.95
68511;SHT31;55512;50.102;19.958;2022-12-24T11:47:41;10.76;71.84
68511;SHT31;55512;50.102;19.958;2022-12-24T11:50:20;10.71;71.89
68511;SHT31;55512;50.102;19.958;2022-12-24T11:52:46;10.70;71.95
68511;SHT31;55512;50.102;19.958;2022-12-24T11:55:20;10.73;71.97
68511;SHT31;55512;50.102;19.958;2022-12-24T12:00:47;10.69;72.03
68511;SHT31;55512;50.102;19.958;2022-12-24T12:03:32;10.67;72.01
68511;SHT31;55512;50.102;19.958;2022-12-24T12:06:13;10.65;72.07
68511;SHT31;55512;50.102;19.958;2022-12-24T12:08:49;10.66;72.01
68511;SHT31;55512;50.102;19.958;2022-12-24T12:11:25;10.68;72.03
68511;SHT31;55512;50.102;19.958;2022-12-24T12:13:53;10.68;72.00
68511;SHT31;55512;50.102;19.958;2022-12-24T12:19:32;10.51;72.18
68511;SHT31;55512;50.102;19.958;2022-12-24T12:22:47;10.43;72.30
68511;SHT31;55512;50.102;19.958;2022-12-24T12:25:20;10.33;72.49
68511;SHT31;55512;50.102;19.958;2022-12-24T12:27:54;10.28;72.69
68511;SHT31;55512;50.102;19.958;2022-12-24T12:30:22;10.24;72.83
68511;SHT31;55512;50.102;19.958;2022-12-24T12:35:43;10.11;73.19
68511;SHT31;55512;50.102;19.958;2022-12-24T12:38:13;10.09;73.27
68511;SHT31;55512;50.102;19.958;2022-12-24T12:58:46;10.04;74.00
68511;SHT31;55512;50.102;19.958;2022-12-24T13:12:26;10.00;74.10
68511;SHT31;55512;50.102;19.958;2022-12-24T13:15:26;9.98;74.19
68511;SHT31;55512;50.102;19.958;2022-12-24T13:21:19;10.10;74.10
68511;SHT31;55512;50.102;19.958;2022-12-24T13:23:49;10.12;74.02
68511;SHT31;55512;50.102;19.958;2022-12-24T13:26:15;10.14;74.03
68511;SHT31;55512;50.102;19.958;2022-12-24T13:28:42;10.15;74.01
68511;SHT31;55512;50.102;19.958;2022-12-24T13:33:49;10.16;74.11
68511;SHT31;55512;50.102;19.958;2022-12-24T13:36:18;10.15;74.18
68511;SHT31;55512;50.102;19.958;2022-12-24T13:38:57;10.17;74.21
68511;SHT31;55512;50.102;19.958;2022-12-24T13:49:31;10.18;74.48
68511;SHT31;55512;50.102;19.958;2022-12-24T13:54:40;10.06;74.62
68511;SHT31;55512;50.102;19.958;2022-12-24T13:57:28;10.01;74.69
68511;SHT31;55512;50.102;19.958;2022-12-24T14:00:00;10.00;74.80
68511;SHT31;55512;50.102;19.958;2022-12-24T14:05:37;10.02;74.80
68511;SHT31;55512;50.102;19.958;2022-12-24T14:08:12;10.00;74.80
68511;SHT31;55512;50.102;19.958;2022-12-24T14:11:05;9.97;74.83
68511;SHT31;55512;50.102;19.958;2022-12-24T14:16:08;9.82;75.27
68511;SHT31;55512;50.102;19.958;2022-12-24T14:18:56;9.80;75.45
68511;SHT31;55512;50.102;19.958;2022-12-24T14:21:36;9.79;75.61
68511;SHT31;55512;50.102;19.958;2022-12-24T14:24:18;9.76;75.89
68511;SHT31;55512;50.102;19.958;2022-12-24T14:26:53;9.75;76.10
68511;SHT31;55512;50.102;19.958;2022-12-24T14:29:38;9.72;76.30
68511;SHT31;55512;50.102;19.958;2022-12-24T14:32:15;9.69;76.51
68511;SHT31;55512;50.102;19.958;2022-12-24T14:34:41;9.67;76.66
68511;SHT31;55512;50.102;19.958;2022-12-24T14:37:08;9.67;76.74
68511;SHT31;55512;50.102;19.958;2022-12-24T14:39:47;9.68;76.73
68511;SHT31;55512;50.102;19.958;2022-12-24T14:42:35;9.70;76.71
68511;SHT31;55512;50.102;19.958;2022-12-24T14:45:20;9.74;76.70
68511;SHT31;55512;50.102;19.958;2022-12-24T14:48:40;9.76;76.60
68511;SHT31;55512;50.102;19.958;2022-12-24T14:56:24;9.75;76.60
68511;SHT31;55512;50.102;19.958;2022-12-24T14:58:50;9.76;76.58
68511;SHT31;55512;50.102;19.958;2022-12-24T15:06:37;9.70;76.50
68511;SHT31;55512;50.102;19.958;2022-12-24T15:09:39;9.63;76.58
68511;SHT31;55512;50.102;19.958;2022-12-24T15:11:59;9.57;76.63
68511;SHT31;55512;50.102;19.958;2022-12-24T15:14:28;9.56;76.69
68511;SHT31;55512;50.102;19.958;2022-12-24T15:17:02;9.53;76.71
68511;SHT31;55512;50.102;19.958;2022-12-24T15:19:36;9.51;76.70
68511;SHT31;55512;50.102;19.958;2022-12-24T15:25:01;9.56;76.62
68511;SHT31;55512;50.102;19.958;2022-12-24T15:27:31;9.54;76.60
68511;SHT31;55512;50.102;19.958;2022-12-24T15:30:07;9.52;76.66
68511;SHT31;55512;50.102;19.958;2022-12-24T15:32:42;9.49;76.65
68511;SHT31;55512;50.102;19.958;2022-12-24T15:37:59;9.45;76.72
68511;SHT31;55512;50.102;19.958;2022-12-24T15:40:27;9.49;76.84
68511;SHT31;55512;50.102;19.958;2022-12-24T15:42:53;9.54;76.84
68511;SHT31;55512;50.102;19.958;2022-12-24T15:45:23;9.55;76.70
68511;SHT31;55512;50.102;19.958;2022-12-24T15:48:06;9.56;76.70
68511;SHT31;55512;50.102;19.958;2022-12-24T15:50:45;9.59;76.71
68511;SHT31;55512;50.102;19.958;2022-12-24T15:53:13;9.61;76.70
68511;SHT31;55512;50.102;19.958;2022-12-24T15:55:47;9.65;76.70
68511;SHT31;55512;50.102;19.958;2022-12-24T15:58:29;9.63;76.66
68511;SHT31;55512;50.102;19.958;2022-12-24T16:06:14;9.55;76.82
68511;SHT31;55512;50.102;19.958;2022-12-24T16:08:40;9.53;76.89
68511;SHT31;55512;50.102;19.958;2022-12-24T16:16:14;9.52;76.84
68511;SHT31;55512;50.102;19.958;2022-12-24T16:18:54;9.53;76.81
68511;SHT31;55512;50.102;19.958;2022-12-24T16:21:29;9.55;76.79
68511;SHT31;55512;50.102;19.958;2022-12-24T16:24:03;9.57;76.71
68511;SHT31;55512;50.102;19.958;2022-12-24T16:26:41;9.57;76.64
68511;SHT31;55512;50.102;19.958;2022-12-24T16:29:06;9.57;76.60
68511;SHT31;55512;50.102;19.958;2022-12-24T16:31:49;9.55;76.59
68511;SHT31;55512;50.102;19.958;2022-12-24T16:34:19;9.56;76.60
68511;SHT31;55512;50.102;19.958;2022-12-24T16:36:51;9.56;76.53
68511;SHT31;55512;50.102;19.958;2022-12-24T16:39:20;9.57;76.49
68511;SHT31;55512;50.102;19.958;2022-12-24T16:41:53;9.58;76.42
68511;SHT31;55512;50.102;19.958;2022-12-24T16:44:42;9.57;76.36
68511;SHT31;55512;50.102;19.958;2022-12-24T16:47:12;9.56;76.31
68511;SHT31;55512;50.102;19.958;2022-12-24T16:49:52;9.56;76.31
68511;SHT31;55512;50.102;19.958;2022-12-24T16:52:19;9.56;76.30
68511;SHT31;55512;50.102;19.958;2022-12-24T16:54:50;9.55;76.24
68511;SHT31;55512;50.102;19.958;2022-12-24T16:57:16;9.54;76.20
68511;SHT31;55512;50.102;19.958;2022-12-24T16:59:42;9.55;76.20
68511;SHT31;55512;50.102;19.958;2022-12-24T17:02:09;9.57;76.19
68511;SHT31;55512;50.102;19.958;2022-12-24T17:04:38;9.58;76.13
68511;SHT31;55512;50.102;19.958;2022-12-24T17:07:03;9.56;76.10
68511;SHT31;55512;50.102;19.958;2022-12-24T17:09:30;9.53;76.19
68511;SHT31;55512;50.102;19.958;2022-12-24T17:11:55;9.53;76.20
68511;SHT31;55512;50.102;19.958;2022-12-24T17:14:21;9.54;76.20
68511;SHT31;55512;50.102;19.958;2022-12-24T17:16:46;9.49;76.19
68511;SHT31;55512;50.102;19.958;2022-12-24T17:19:12;9.46;76.20
68511;SHT31;55512;50.102;19.958;2022-12-24T17:21:38;9.47;76.25
68511;SHT31;55512;50.102;19.958;2022-12-24T17:24:05;9.48;76.27
68511;SHT31;55512;50.102;19.958;2022-12-24T17:26:31;9.48;76.28
68511;SHT31;55512;50.102;19.958;2022-12-24T17:28:57;9.51;76.28
68511;SHT31;55512;50.102;19.958;2022-12-24T17:31:22;9.51;76.20
68511;SHT31;55512;50.102;19.958;2022-12-24T17:33:49;9.50;76.21
68511;SHT31;55512;50.102;19.958;2022-12-24T17:36:17;9.51;76.20
68511;SHT31;55512;50.102;19.958;2022-12-24T17:38:44;9.50;76.17
68511;SHT31;55512;50.102;19.958;2022-12-24T17:41:10;9.48;76.18
68511;SHT31;55512;50.102;19.958;2022-12-24T17:43:39;9.46;76.18
68511;SHT31;55512;50.102;19.958;2022-12-24T17:46:05;9.45;76.15
68511;SHT31;55512;50.102;19.958;2022-12-24T17:48:33;9.45;76.08
68511;SHT31;55512;50.102;19.958;2022-12-24T17:51:06;9.45;76.02
68511;SHT31;55512;50.102;19.958;2022-12-24T17:53:38;9.43;76.00
68511;SHT31;55512;50.102;19.958;2022-12-24T17:56:05;9.39;75.92
68511;SHT31;55512;50.102;19.958;2022-12-24T17:58:37;9.35;75.90
68511;SHT31;55512;50.102;19.958;2022-12-24T18:01:04;9.29;75.90
68511;SHT31;55512;50.102;19.958;2022-12-24T18:03:30;9.27;75.96
68511;SHT31;55512;50.102;19.958;2022-12-24T18:06:06;9.24;75.90
68511;SHT31;55512;50.102;19.958;2022-12-24T18:08:34;9.21;75.90
68511;SHT31;55512;50.102;19.958;2022-12-24T18:11:23;9.19;75.82
68511;SHT31;55512;50.102;19.958;2022-12-24T18:13:56;9.11;75.79
68511;SHT31;55512;50.102;19.958;2022-12-24T18:16:31;9.08;75.75